createdAt,value
2017-02-02T00:01:22.853Z,64.49
2017-02-02T00:03:34.992Z,64.47
2017-02-02T00:05:47.225Z,64.49
2017-02-02T00:07:59.572Z,64.42
2017-02-02T00:10:11.728Z,64.44
2017-02-02T00:12:24.325Z,64.44
2017-02-02T00:14:36.976Z,64.4
2017-02-02T00:16:49.219Z,64.36
2017-02-02T00:21:12.258Z,64.42
2017-02-02T00:23:24.487Z,64.41
2017-02-02T00:25:36.752Z,64.48
2017-02-02T00:27:49.014Z,64.5
2017-02-02T00:30:01.347Z,64.49
2017-02-02T00:32:13.608Z,64.5
2017-02-02T00:34:25.876Z,64.54
2017-02-02T00:36:38.003Z,64.46
2017-02-02T00:38:50.132Z,64.45
2017-02-02T00:41:02.417Z,64.49
2017-02-02T00:43:14.658Z,64.54
2017-02-02T00:45:26.832Z,64.53
2017-02-02T00:47:39.159Z,64.53
2017-02-02T00:49:51.592Z,64.51
2017-02-02T00:52:04.024Z,64.51
2017-02-02T00:54:16.278Z,64.5
2017-02-02T00:56:23.655Z,64.55
2017-02-02T00:58:36.040Z,64.59
2017-02-02T01:00:48.225Z,64.57
2017-02-02T01:03:00.536Z,64.46
2017-02-02T01:05:12.792Z,64.46
2017-02-02T01:07:20.196Z,64.51
2017-02-02T01:09:32.573Z,64.53
2017-02-02T01:11:44.901Z,64.54
2017-02-02T01:13:57.105Z,64.53
2017-02-02T01:16:09.447Z,64.52
2017-02-02T01:18:21.960Z,64.53
2017-02-02T01:20:34.740Z,64.56
2017-02-02T01:22:47.222Z,64.47
2017-02-02T01:24:59.820Z,64.53
2017-02-02T01:27:12.149Z,64.59
2017-02-02T01:29:24.490Z,64.59
2017-02-02T01:31:36.723Z,64.56
2017-02-02T01:33:48.995Z,64.55
2017-02-02T01:36:01.349Z,64.58
2017-02-02T01:38:13.653Z,64.65
2017-02-02T01:40:25.959Z,64.66
2017-02-02T01:42:38.062Z,64.65
2017-02-02T01:44:50.314Z,64.62
2017-02-02T01:47:02.549Z,64.6
2017-02-02T01:49:14.870Z,64.57
2017-02-02T01:51:25.415Z,64.62
2017-02-02T01:53:37.610Z,64.68
2017-02-02T01:55:50.401Z,64.62
2017-02-02T01:58:02.718Z,64.68
2017-02-02T02:00:15.092Z,64.73
2017-02-02T02:02:27.351Z,64.78
2017-02-02T02:04:39.519Z,64.79
2017-02-02T02:06:51.818Z,64.75
2017-02-02T02:09:03.992Z,64.74
2017-02-02T02:11:16.205Z,64.77
2017-02-02T02:13:28.438Z,64.74
2017-02-02T02:15:35.793Z,64.73
2017-02-02T02:17:48.045Z,64.72
2017-02-02T02:20:00.185Z,64.72
2017-02-02T02:22:12.501Z,64.72
2017-02-02T02:24:24.851Z,64.69
2017-02-02T02:26:37.120Z,64.67
2017-02-02T02:28:49.424Z,64.65
2017-02-02T02:31:02.685Z,64.66
2017-02-02T02:33:14.972Z,64.63
2017-02-02T02:35:27.147Z,64.63
2017-02-02T02:37:39.507Z,64.63
2017-02-02T02:39:51.660Z,64.63
2017-02-02T02:42:03.896Z,64.66
2017-02-02T02:44:16.151Z,64.69
2017-02-02T02:46:28.511Z,64.67
2017-02-02T02:48:40.880Z,64.67
2017-02-02T02:50:53.211Z,64.69
2017-02-02T02:53:05.569Z,64.69
2017-02-02T02:55:16.106Z,64.7
2017-02-02T02:57:28.259Z,64.7
2017-02-02T02:59:40.540Z,64.67
2017-02-02T03:01:52.826Z,64.68
2017-02-02T03:04:05.429Z,64.66
2017-02-02T03:06:18.488Z,64.66
2017-02-02T03:08:30.663Z,64.66
2017-02-02T03:10:42.882Z,64.66
2017-02-02T03:12:55.167Z,64.66
2017-02-02T03:15:07.347Z,64.69
2017-02-02T03:17:14.576Z,64.71
2017-02-02T03:19:21.963Z,64.73
2017-02-02T03:21:34.532Z,64.71
2017-02-02T03:23:46.717Z,64.67
2017-02-02T03:25:58.918Z,64.57
2017-02-02T03:28:09.388Z,64.53
2017-02-02T03:30:21.589Z,64.55
2017-02-02T03:32:33.672Z,64.55
2017-02-02T03:34:45.985Z,64.49
2017-02-02T03:36:58.762Z,64.46
2017-02-02T03:39:11.712Z,64.43
2017-02-02T03:41:24.225Z,64.38
2017-02-02T03:43:36.538Z,64.4
2017-02-02T03:45:48.705Z,64.38
2017-02-02T03:48:00.977Z,64.38
2017-02-02T03:50:08.179Z,64.41
2017-02-02T03:52:20.396Z,64.42
2017-02-02T03:54:32.608Z,64.44
2017-02-02T03:56:44.888Z,64.44
2017-02-02T03:58:57.399Z,64.45
2017-02-02T04:01:09.694Z,64.46
2017-02-02T04:03:21.851Z,64.48
2017-02-02T04:05:34.067Z,64.46
2017-02-02T04:07:41.385Z,64.43
2017-02-02T04:09:53.804Z,64.41
2017-02-02T04:12:05.968Z,64.42
2017-02-02T04:14:18.498Z,64.43
2017-02-02T04:16:31.034Z,64.39
2017-02-02T04:18:43.194Z,64.39
2017-02-02T04:20:55.516Z,64.41
2017-02-02T04:23:07.697Z,64.43
2017-02-02T04:25:15.187Z,64.4
2017-02-02T04:27:27.562Z,64.42
2017-02-02T04:29:39.905Z,64.45
2017-02-02T04:31:52.167Z,64.48
2017-02-02T04:34:04.531Z,64.49
2017-02-02T04:36:17.033Z,64.47
2017-02-02T04:38:29.253Z,64.45
2017-02-02T04:40:41.648Z,64.45
2017-02-02T04:42:54.014Z,64.41
2017-02-02T04:45:06.165Z,64.43
2017-02-02T04:47:18.334Z,64.47
2017-02-02T04:49:30.993Z,64.47
2017-02-02T04:51:43.411Z,64.44
2017-02-02T04:53:54.054Z,64.43
2017-02-02T04:56:06.219Z,64.45
2017-02-02T04:58:18.567Z,64.46
2017-02-02T05:00:30.938Z,64.46
2017-02-02T05:02:43.227Z,64.47
2017-02-02T05:04:55.729Z,64.5
2017-02-02T05:07:07.896Z,64.51
2017-02-02T05:09:20.154Z,64.49
2017-02-02T05:11:32.313Z,64.39
2017-02-02T05:13:44.695Z,64.32
2017-02-02T05:15:57.007Z,64.34
2017-02-02T05:18:09.370Z,64.41
2017-02-02T05:20:21.733Z,64.43
2017-02-02T05:22:34.210Z,64.39
2017-02-02T05:24:46.634Z,64.41
2017-02-02T05:26:58.961Z,64.44
2017-02-02T05:29:11.187Z,64.44
2017-02-02T05:31:23.403Z,64.41
2017-02-02T05:33:35.762Z,64.44
2017-02-02T05:35:48.025Z,64.45
2017-02-02T05:38:00.226Z,64.44
2017-02-02T05:40:12.369Z,64.44
2017-02-02T05:42:24.586Z,64.42
2017-02-02T05:44:36.976Z,64.41
2017-02-02T05:46:49.174Z,64.38
2017-02-02T05:49:01.505Z,64.36
2017-02-02T05:51:13.619Z,64.39
2017-02-02T05:53:25.868Z,64.39
2017-02-02T05:55:38.149Z,64.38
2017-02-02T05:57:50.533Z,64.37
2017-02-02T06:00:02.820Z,64.39
2017-02-02T06:02:09.975Z,64.4
2017-02-02T06:04:20.636Z,64.4
2017-02-02T06:06:33.190Z,64.43
2017-02-02T06:08:45.405Z,64.47
2017-02-02T06:10:57.601Z,64.5
2017-02-02T06:13:09.757Z,64.58
2017-02-02T06:15:22.005Z,64.66
2017-02-02T06:17:34.200Z,64.73
2017-02-02T06:19:46.441Z,64.83
2017-02-02T06:21:58.571Z,64.88
2017-02-02T06:24:10.899Z,64.92
2017-02-02T06:26:23.151Z,64.95
2017-02-02T06:28:35.378Z,64.99
2017-02-02T06:30:47.841Z,65
2017-02-02T06:33:00.382Z,64.98
2017-02-02T06:35:12.683Z,64.96
2017-02-02T06:37:24.884Z,64.91
2017-02-02T06:39:37.116Z,64.87
2017-02-02T06:41:49.384Z,64.85
2017-02-02T06:44:02.108Z,64.85
2017-02-02T06:46:14.401Z,64.79
2017-02-02T06:48:26.895Z,64.72
2017-02-02T06:50:39.108Z,64.67
2017-02-02T06:52:51.230Z,64.71
2017-02-02T06:55:03.583Z,64.69
2017-02-02T06:57:15.860Z,64.65
2017-02-02T06:59:28.207Z,64.63
2017-02-02T07:01:41.180Z,64.6
2017-02-02T07:03:53.335Z,64.58
2017-02-02T07:06:00.948Z,64.51
2017-02-02T07:08:13.742Z,64.43
2017-02-02T07:10:26.126Z,64.38
2017-02-02T07:12:38.428Z,64.33
2017-02-02T07:14:49.062Z,64.3
2017-02-02T07:17:00.033Z,64.21
2017-02-02T07:19:07.410Z,64.15
2017-02-02T07:21:19.748Z,64.08
2017-02-02T07:23:32.055Z,63.99
2017-02-02T07:25:44.299Z,63.93
2017-02-02T07:27:56.672Z,63.86
2017-02-02T07:30:08.828Z,63.8
2017-02-02T07:32:21.074Z,63.77
2017-02-02T07:34:35.115Z,63.73
2017-02-02T07:36:47.324Z,63.63
2017-02-02T07:38:59.565Z,63.54
2017-02-02T07:41:12.912Z,63.41
2017-02-02T07:43:26.108Z,63.28
2017-02-02T07:45:38.560Z,63.2
2017-02-02T07:47:50.750Z,63.07
2017-02-02T07:50:03.227Z,62.89
2017-02-02T07:52:15.463Z,62.74
2017-02-02T07:54:27.987Z,62.52
2017-02-02T07:56:40.367Z,62.35
2017-02-02T07:58:52.752Z,62.24
2017-02-02T08:01:05.075Z,62.17
2017-02-02T08:03:17.398Z,62.08
2017-02-02T08:05:30.299Z,61.96
2017-02-02T08:07:41.727Z,61.84
2017-02-02T08:09:54.636Z,61.75
2017-02-02T08:12:06.769Z,61.7
2017-02-02T08:14:20.914Z,61.58
2017-02-02T08:16:33.491Z,61.48
2017-02-02T08:18:46.909Z,61.39
2017-02-02T08:20:59.369Z,61.28
2017-02-02T08:23:11.970Z,61.12
2017-02-02T08:25:31.575Z,60.95
2017-02-02T08:27:43.778Z,60.79
2017-02-02T08:29:56.179Z,60.72
2017-02-02T08:32:08.495Z,60.65
2017-02-02T08:34:20.837Z,60.52
2017-02-02T08:36:33.151Z,60.48
2017-02-02T08:38:45.432Z,60.42
2017-02-02T08:40:57.588Z,60.32
2017-02-02T08:43:09.793Z,60.25
2017-02-02T08:45:22.116Z,60.22
2017-02-02T08:49:44.859Z,60.2
2017-02-02T08:51:57.224Z,60.16
2017-02-02T08:54:10.070Z,60.08
2017-02-02T08:56:22.380Z,60.05
2017-02-02T08:58:34.652Z,59.97
2017-02-02T09:00:46.841Z,59.73
2017-02-02T09:02:59.051Z,59.56
2017-02-02T09:05:11.308Z,59.36
2017-02-02T09:07:23.620Z,59.07
2017-02-02T09:09:35.775Z,58.94
2017-02-02T09:11:48.004Z,58.84
2017-02-02T09:14:00.274Z,58.7
2017-02-02T09:16:12.532Z,58.49
2017-02-02T09:18:19.768Z,58.37
2017-02-02T09:20:32.046Z,58.19
2017-02-02T09:22:44.633Z,57.92
2017-02-02T09:24:51.860Z,57.8
2017-02-02T09:27:04.134Z,57.61
2017-02-02T09:29:16.411Z,57.27
2017-02-02T09:31:28.790Z,57.26
2017-02-02T09:33:41.861Z,57.18
2017-02-02T09:35:54.643Z,57.06
2017-02-02T09:38:06.922Z,56.91
2017-02-02T09:40:21.798Z,56.89
2017-02-02T09:42:34.932Z,56.67
2017-02-02T09:44:53.357Z,56.28
2017-02-02T09:47:16.120Z,56.36
2017-02-02T09:49:32.986Z,56.21
2017-02-02T09:51:45.638Z,56.13
2017-02-02T09:53:57.910Z,55.88
2017-02-02T09:56:10.189Z,54.89
2017-02-02T09:58:22.416Z,54.43
2017-02-02T10:00:34.612Z,54
2017-02-02T10:02:46.999Z,53.64
2017-02-02T10:04:59.894Z,51.04
2017-02-02T10:07:10.625Z,48.98
2017-02-02T10:09:17.948Z,48.55
2017-02-02T10:11:30.423Z,49.45
2017-02-02T10:13:41.045Z,48.72
2017-02-02T10:15:53.384Z,49.87
2017-02-02T10:18:05.653Z,49.61
2017-02-02T10:20:17.840Z,50.17
2017-02-02T10:22:30.246Z,49.24
2017-02-02T10:24:37.436Z,50.59
2017-02-02T10:26:49.677Z,50.49
2017-02-02T10:28:57.007Z,51.33
2017-02-02T10:31:09.274Z,51.93
2017-02-02T10:33:16.443Z,52.44
2017-02-02T10:35:28.595Z,52.96
2017-02-02T10:37:35.957Z,53.13
2017-02-02T10:39:48.830Z,53.07
2017-02-02T10:41:56.250Z,53.03
2017-02-02T10:44:08.838Z,52.98
2017-02-02T10:46:21.081Z,52.87
2017-02-02T10:48:33.506Z,52.58
2017-02-02T10:50:45.888Z,52.27
2017-02-02T10:52:58.020Z,52.12
2017-02-02T10:55:10.371Z,51.82
2017-02-02T10:57:22.793Z,51.27
2017-02-02T10:59:34.962Z,51.08
2017-02-02T11:01:51.035Z,51.31
2017-02-02T11:04:03.213Z,51.51
2017-02-02T11:06:15.624Z,51.46
2017-02-02T11:08:27.910Z,51.24
2017-02-02T11:10:40.072Z,48.5
2017-02-02T11:12:47.369Z,44.77
2017-02-02T11:14:59.626Z,44.21
2017-02-02T11:17:12.344Z,42.78
2017-02-02T11:19:24.494Z,42.42
2017-02-02T11:21:36.691Z,41.14
2017-02-02T11:23:48.951Z,39.5
2017-02-02T11:26:01.319Z,38.72
2017-02-02T11:28:13.693Z,38.08
2017-02-02T11:30:25.902Z,37.35
2017-02-02T11:32:38.248Z,38.34
2017-02-02T11:34:50.499Z,37.36
2017-02-02T11:37:02.880Z,36.74
2017-02-02T11:41:25.635Z,36.18
2017-02-02T11:43:37.795Z,36.42
2017-02-02T11:45:51.364Z,36.37
2017-02-02T11:48:03.527Z,35.74
2017-02-02T11:50:16.001Z,35.56
2017-02-02T11:52:28.284Z,36.5
2017-02-02T11:54:40.458Z,35.38
2017-02-02T11:56:52.843Z,35.12
2017-02-02T11:59:05.092Z,34.95
2017-02-02T12:01:12.822Z,35.63
2017-02-02T12:03:25.156Z,37.51
2017-02-02T12:05:32.379Z,39.97
2017-02-02T12:07:44.775Z,40.57
2017-02-02T12:09:52.095Z,39.35
2017-02-02T12:11:59.313Z,37.3
2017-02-02T12:14:11.675Z,36.95
2017-02-02T12:16:23.815Z,39.77
2017-02-02T12:18:36.206Z,42
2017-02-02T12:20:48.545Z,41.18
2017-02-02T12:23:02.805Z,40.13
2017-02-02T12:27:26.444Z,42.41
2017-02-02T12:29:39.796Z,40.76
2017-02-02T12:31:47.206Z,40.44
2017-02-02T12:33:54.376Z,41.97
2017-02-02T12:36:06.494Z,42.51
2017-02-02T12:38:18.799Z,45.79
2017-02-02T12:40:30.998Z,48.05
2017-02-02T12:42:43.303Z,49.16
2017-02-02T12:44:55.657Z,49.91
2017-02-02T12:47:07.925Z,50.71
2017-02-02T12:49:20.528Z,51.13
2017-02-02T12:51:32.712Z,51.24
2017-02-02T12:53:45.076Z,51.37
2017-02-02T12:55:57.349Z,51.72
2017-02-02T12:58:09.603Z,51.76
2017-02-02T13:00:22.207Z,50.38
2017-02-02T13:02:29.622Z,50.5
2017-02-02T13:04:41.904Z,50.52
2017-02-02T13:06:54.137Z,50.85
2017-02-02T13:09:06.326Z,50.83
2017-02-02T13:11:18.530Z,51.05
2017-02-02T13:13:30.841Z,51.16
2017-02-02T13:15:43.142Z,51.52
2017-02-02T13:17:55.504Z,51.7
2017-02-02T13:20:07.923Z,52.07
2017-02-02T13:22:20.139Z,52.48
2017-02-02T13:24:32.366Z,52.88
2017-02-02T13:26:44.599Z,53.26
2017-02-02T13:28:56.849Z,53.59
2017-02-02T13:31:09.037Z,53.91
2017-02-02T13:33:16.263Z,54.08
2017-02-02T13:35:28.474Z,54.28
2017-02-02T13:37:40.857Z,54.42
2017-02-02T13:39:53.162Z,54.53
2017-02-02T13:42:00.484Z,54.66
2017-02-02T13:44:12.844Z,54.84
2017-02-02T13:46:25.368Z,54.91
2017-02-02T13:48:37.517Z,54.91
2017-02-02T13:50:49.861Z,54.62
2017-02-02T13:53:02.100Z,54.54
2017-02-02T13:55:14.778Z,54.01
2017-02-02T13:57:27.100Z,52.8
2017-02-02T13:59:29.377Z,52.63
2017-02-02T14:01:41.592Z,52.67
2017-02-02T14:03:53.921Z,52.37
2017-02-02T14:06:06.329Z,52.26
2017-02-02T14:08:18.619Z,52.45
2017-02-02T14:10:30.904Z,52.61
2017-02-02T14:12:43.357Z,52.9
2017-02-02T14:14:57.984Z,53.36
2017-02-02T14:17:10.252Z,53.95
2017-02-02T14:19:22.877Z,54.42
2017-02-02T14:21:35.264Z,54.62
2017-02-02T14:23:47.678Z,54.55
2017-02-02T14:26:03.850Z,54.3
2017-02-02T14:28:44.792Z,54.87
2017-02-02T14:31:19.108Z,55.3
2017-02-02T14:33:31.261Z,55.3
2017-02-02T14:35:43.702Z,55.15
2017-02-02T14:37:55.966Z,55.27
2017-02-02T14:40:03.341Z,55.52
2017-02-02T14:42:15.636Z,55.75
2017-02-02T14:44:27.964Z,56.03
2017-02-02T14:46:40.786Z,56.23
2017-02-02T14:48:53.135Z,56.72
2017-02-02T14:51:05.395Z,56.88
2017-02-02T14:53:17.643Z,57.07
2017-02-02T14:55:29.889Z,57.39
2017-02-02T14:57:42.620Z,57.71
2017-02-02T14:59:54.909Z,57.67
2017-02-02T15:02:07.193Z,57.74
2017-02-02T15:04:14.531Z,58.01
2017-02-02T15:06:26.659Z,58.47
2017-02-02T15:08:39.163Z,58.88
2017-02-02T15:10:51.381Z,59.35
2017-02-02T15:13:03.619Z,59.73
2017-02-02T15:15:11.648Z,59.98
2017-02-02T15:17:23.880Z,60.21
2017-02-02T15:19:36.341Z,60.35
2017-02-02T15:21:49.103Z,60.55
2017-02-02T15:24:01.863Z,60.79
2017-02-02T15:26:14.245Z,61.03
2017-02-02T15:28:26.686Z,61.2
2017-02-02T15:30:33.892Z,61.43
2017-02-02T15:32:46.145Z,61.69
2017-02-02T15:34:58.416Z,61.97
2017-02-02T15:37:05.969Z,62.22
2017-02-02T15:39:14.181Z,62.39
2017-02-02T15:41:26.755Z,62.59
2017-02-02T15:43:39.038Z,62.76
2017-02-02T15:45:47.264Z,62.9
2017-02-02T15:47:59.468Z,63.1
2017-02-02T15:50:11.768Z,63.31
2017-02-02T15:52:19.017Z,63.44
2017-02-02T15:54:29.761Z,63.6
2017-02-02T15:56:42.638Z,63.74
2017-02-02T15:58:54.830Z,63.93
2017-02-02T16:01:07.132Z,64.1
2017-02-02T16:03:19.811Z,64.24
2017-02-02T16:05:32.129Z,64.39
2017-02-02T16:07:44.302Z,64.51
2017-02-02T16:09:56.690Z,64.6
2017-02-02T16:12:09.079Z,64.67
2017-02-02T16:14:21.341Z,64.73
2017-02-02T16:16:33.708Z,64.76
2017-02-02T16:18:46.122Z,64.75
2017-02-02T16:20:48.385Z,64.78
2017-02-02T16:22:56.402Z,64.74
2017-02-02T16:25:11.993Z,64.72
2017-02-02T16:27:24.229Z,64.75
2017-02-02T16:29:36.824Z,64.78
2017-02-02T16:31:51.284Z,64.82
2017-02-02T16:34:03.535Z,64.87
2017-02-02T16:36:19.842Z,64.9
2017-02-02T16:38:32.101Z,64.88
2017-02-02T16:40:51.737Z,64.87
2017-02-02T16:43:04.327Z,64.85
2017-02-02T16:45:29.534Z,64.86
2017-02-02T16:47:56.137Z,64.87
2017-02-02T16:50:24.741Z,64.86
2017-02-02T16:52:57.937Z,64.82
2017-02-02T16:55:28.204Z,64.74
2017-02-02T16:57:59.433Z,64.62
2017-02-02T17:00:24.721Z,64.56
2017-02-02T17:02:40.783Z,64.5
2017-02-02T17:05:07.985Z,64.46
2017-02-02T17:07:28.084Z,64.45
2017-02-02T17:09:59.351Z,64.43
2017-02-02T17:12:27.364Z,64.38
2017-02-02T17:15:03.340Z,64.31
2017-02-02T17:20:04.786Z,64.26
2017-02-02T17:22:39.896Z,64.28
2017-02-02T17:25:19.956Z,64.29
2017-02-02T17:28:05.830Z,64.25
2017-02-02T17:30:50.081Z,64.2
2017-02-02T17:33:35.816Z,64.1
2017-02-02T17:36:19.356Z,64.08
2017-02-02T17:39:07.165Z,64.12
2017-02-02T17:41:52.736Z,64.13
2017-02-02T17:44:44.852Z,64.15
2017-02-02T17:47:28.778Z,64.14
2017-02-02T17:50:11.398Z,64.14
2017-02-02T17:52:51.212Z,64.11
2017-02-02T17:55:25.715Z,64.08
2017-02-02T17:58:04.099Z,64.03
2017-02-02T18:00:38.146Z,63.97
2017-02-02T18:03:22.504Z,63.91
2017-02-02T18:05:53.389Z,63.86
2017-02-02T18:08:35.491Z,63.8
2017-02-02T18:11:23.788Z,63.75
2017-02-02T18:14:09.175Z,63.72
2017-02-02T18:16:46.542Z,63.69
2017-02-02T18:19:19.931Z,63.67
2017-02-02T18:21:51.536Z,63.63
2017-02-02T18:24:26.828Z,63.57
2017-02-02T18:27:06.292Z,63.47
2017-02-02T18:29:45.265Z,63.38
2017-02-02T18:32:02.711Z,63.33
2017-02-02T18:34:17.856Z,63.3
2017-02-02T18:36:53.733Z,63.27
2017-02-02T18:39:50.680Z,63.19
2017-02-02T18:42:49.211Z,63.15
2017-02-02T18:48:52.202Z,63.05
2017-02-02T18:51:54.681Z,63.04
2017-02-02T18:54:58.650Z,63.01
2017-02-02T18:58:13.990Z,62.96
2017-02-02T19:01:21.851Z,62.94
2017-02-02T19:04:22.538Z,62.91
2017-02-02T19:06:39.772Z,62.89
2017-02-02T19:09:11.160Z,62.88
2017-02-02T19:12:06.233Z,62.85
2017-02-02T19:14:24.796Z,62.81
2017-02-02T19:16:46.404Z,62.78
2017-02-02T19:19:37.034Z,62.79
2017-02-02T19:22:24.743Z,62.76
2017-02-02T19:25:15.253Z,62.74
2017-02-02T19:28:12.051Z,62.7
2017-02-02T19:31:11.510Z,62.66
2017-02-02T19:34:10.864Z,62.64
2017-02-02T19:37:09.007Z,62.67
2017-02-02T19:40:07.204Z,62.66
2017-02-02T19:43:05.091Z,62.64
2017-02-02T19:46:00.672Z,62.64
2017-02-02T19:48:25.155Z,62.64
2017-02-02T19:50:38.541Z,62.61
2017-02-02T19:52:50.399Z,62.61
2017-02-02T19:55:04.646Z,62.61
2017-02-02T19:57:19.513Z,62.58
2017-02-02T19:59:34.251Z,62.55
2017-02-02T20:01:51.641Z,62.55
2017-02-02T20:04:08.264Z,62.55
2017-02-02T20:06:20.591Z,62.56
2017-02-02T20:08:31.329Z,62.56
2017-02-02T20:10:43.910Z,62.56
2017-02-02T20:13:08.365Z,62.56
2017-02-02T20:15:30.979Z,62.56
2017-02-02T20:17:43.253Z,62.56
2017-02-02T20:19:55.701Z,62.57
2017-02-02T20:22:08.002Z,62.57
2017-02-02T20:24:20.536Z,62.59
2017-02-02T20:26:32.903Z,62.63
2017-02-02T20:28:45.218Z,62.64
2017-02-02T20:30:47.673Z,62.66
2017-02-02T20:32:58.461Z,62.65
2017-02-02T20:35:10.822Z,62.67
2017-02-02T20:37:23.318Z,62.71
2017-02-02T20:39:30.818Z,62.74
2017-02-02T20:41:43.101Z,62.77
2017-02-02T20:43:55.877Z,62.81
2017-02-02T20:46:09.814Z,62.82
2017-02-02T20:48:22.316Z,62.76
2017-02-02T20:50:34.632Z,62.76
2017-02-02T20:52:46.925Z,62.72
2017-02-02T20:54:59.126Z,62.77
2017-02-02T20:57:11.348Z,62.78
2017-02-02T20:59:23.966Z,62.8
2017-02-02T21:01:34.421Z,62.83
2017-02-02T21:03:46.841Z,62.86
2017-02-02T21:05:59.520Z,62.9
2017-02-02T21:08:07.583Z,62.88
2017-02-02T21:10:20.279Z,62.8
2017-02-02T21:12:33.679Z,62.72
2017-02-02T21:14:41.216Z,62.71
2017-02-02T21:16:55.282Z,62.72
2017-02-02T21:19:04.541Z,62.68
2017-02-02T21:21:17.015Z,62.69
2017-02-02T21:23:29.716Z,62.72
2017-02-02T21:25:43.202Z,62.76
2017-02-02T21:27:55.836Z,62.82
2017-02-02T21:30:03.311Z,62.85
2017-02-02T21:32:16.284Z,62.9
2017-02-02T21:34:40.927Z,62.94
2017-02-02T21:37:14.694Z,62.98
2017-02-02T21:39:48.297Z,63.03
2017-02-02T21:42:34.935Z,63.04
2017-02-02T21:45:13.087Z,63.05
2017-02-02T21:47:30.817Z,63.1
2017-02-02T21:49:38.249Z,63.13
2017-02-02T21:51:50.640Z,63.13
2017-02-02T21:54:03.114Z,63.15
2017-02-02T21:56:15.489Z,63.13
2017-02-02T21:58:27.779Z,63.15
2017-02-02T22:00:40.219Z,63.15
2017-02-02T22:02:52.484Z,63.16
2017-02-02T22:05:04.737Z,63.2
2017-02-02T22:07:17.090Z,63.2
2017-02-02T22:09:24.378Z,63.17
2017-02-02T22:11:36.606Z,63.17
2017-02-02T22:13:43.881Z,63.17
2017-02-02T22:15:56.301Z,63.21
2017-02-02T22:18:08.611Z,63.21
2017-02-02T22:20:20.869Z,63.19
2017-02-02T22:22:33.087Z,63.17
2017-02-02T22:24:40.422Z,63.14
2017-02-02T22:26:52.665Z,63.13
2017-02-02T22:29:04.829Z,63.09
2017-02-02T22:31:17.215Z,63.09
2017-02-02T22:33:29.501Z,63.02
2017-02-02T22:35:41.738Z,62.95
2017-02-02T22:37:54.068Z,62.9
2017-02-02T22:40:06.407Z,62.87
2017-02-02T22:42:18.621Z,62.86
2017-02-02T22:44:30.858Z,62.87
2017-02-02T22:46:43.278Z,62.79
2017-02-02T22:48:55.496Z,62.73
2017-02-02T22:51:07.806Z,62.73
2017-02-02T22:53:20.088Z,62.72
2017-02-02T22:55:32.297Z,62.71
2017-02-02T22:57:44.658Z,62.76
2017-02-02T22:59:55.199Z,62.8
2017-02-02T23:02:07.397Z,62.86
2017-02-02T23:04:14.860Z,62.91
2017-02-02T23:06:27.108Z,62.93
2017-02-02T23:08:39.946Z,62.96
2017-02-02T23:10:52.233Z,63
2017-02-02T23:13:04.694Z,62.99
2017-02-02T23:15:17.539Z,62.97
2017-02-02T23:17:30.025Z,63
2017-02-02T23:19:42.369Z,62.99
2017-02-02T23:21:54.658Z,62.92
2017-02-02T23:24:08.626Z,62.86
2017-02-02T23:26:21.046Z,62.83
2017-02-02T23:28:33.420Z,62.81
2017-02-02T23:30:45.677Z,62.8
2017-02-02T23:32:57.941Z,62.81
2017-02-02T23:35:10.292Z,62.84
2017-02-02T23:37:17.549Z,62.85
2017-02-02T23:39:29.709Z,62.88
2017-02-02T23:41:42.032Z,62.86
2017-02-02T23:43:54.327Z,62.78
2017-02-02T23:46:06.486Z,62.77
2017-02-02T23:48:18.914Z,62.8
2017-02-02T23:50:31.193Z,62.79
2017-02-02T23:52:43.641Z,62.81
2017-02-02T23:54:55.887Z,62.86
2017-02-02T23:57:01.519Z,62.89
2017-02-02T23:59:13.775Z,62.9
